Groton New London Airport
KGON : now visible

Airfield :











YOU CAN JOIN US ON...

 
LOGIN :

Register | Disclaimer

   EN    FR    IT 

 









Legend :    VFR   Marginal VFR   IFR   Intensive IFR   Very Intensive IFR
Visi :
Ceiling :
>= 8 km
>= 3000ft
5 to 8 km
1000 to 3000 ft
1500m to 5 km
500 to 1000 ft
800 to 1500m
200 to 500 ft
< 800m
< 200 ft
Symbols :   Thunderstorms  Fog  Heavy snow  Heavy precipitations  Wind > 20 kt






- Airport Elevation : 9 ft
- IATA code : GON


KGON - Groton New London

CURRENT METAR :
  • 152056Z 27021G30KT 10SM FEW060 07/M06 A2981 RMK AO2 PK WND 24031/2019 SLP094 T00721056 53033

EXPIRED METARs :
  • 151956Z 28017G24KT 10SM BKN060 08/M06 A2977 RMK AO2 PK WND 28032/1937 SLP079 T00781061
  • 151856Z 27013G22KT 10SM BKN070 08/M03 A2974 RMK AO2 PK WND 27031/1845 SLP070 T00781028

TAF KGON
Valid from the 15 at 21:00 until the 16 at 18:00 UTC


152034Z 1521/1618 28017G25KT P6SM SCT050 SCT250
FM160200 29012G18KT P6SM FEW250
FM160400 29008KT P6SM SCT250
FM160800 29005KT P6SM SCT150 BKN250
FM161100 VRB04KT P6SM BKN070
FM161700 25005KT P6SM SCT015 BKN025



MET'MAP, your aeronautical weather chart ! - Copyright ORBIFLY December 2007 - Disclaimer

ORBIFLY MET'MAP TEAM :

Programming & Development : Alexandra Zaïnal
Concept & original design : Baudouin d'Aumeries
Assistance for programming : Marc-Olivier Méhu
Technical & hardware support : Manuel Goepfert

Contact : metmap@orbifly.com




SOURCES & CREDITS :

   NOAA       Earth
Advisory